createdAt,value
2019-01-13T13:25:15.055Z,90.15
2019-01-13T13:27:47.129Z,89.93
2019-01-13T13:30:22.499Z,90.03
2019-01-13T13:32:54.448Z,90.10
2019-01-13T13:35:29.454Z,90.11
2019-01-13T13:38:01.504Z,89.98
2019-01-13T13:40:35.202Z,89.96
2019-01-13T13:43:06.862Z,89.95
2019-01-13T13:45:38.800Z,89.76
2019-01-13T13:48:10.497Z,89.58
2019-01-13T13:50:42.174Z,89.41
2019-01-13T13:53:13.901Z,89.00
2019-01-13T13:55:46.961Z,88.56
2019-01-13T13:58:18.896Z,88.22
2019-01-13T14:00:50.693Z,87.79
2019-01-13T14:03:22.366Z,87.94
2019-01-13T14:05:54.162Z,87.84
2019-01-13T14:08:25.832Z,87.82
2019-01-13T14:10:58.921Z,87.55
2019-01-13T14:13:30.599Z,87.66
2019-01-13T14:16:03.063Z,87.79
2019-01-13T14:18:34.872Z,88.61
2019-01-13T14:21:06.818Z,89.29
2019-01-13T14:23:43.095Z,89.58
2019-01-13T14:26:15.782Z,89.63
2019-01-13T14:28:47.725Z,89.63
2019-01-13T14:31:19.575Z,89.83
2019-01-13T14:33:53.264Z,90.93
2019-01-13T14:36:27.786Z,92.09
2019-01-13T14:38:59.751Z,93.43
2019-01-13T14:41:31.502Z,93.87
2019-01-13T14:44:06.434Z,93.70
2019-01-13T14:46:40.623Z,93.64
2019-01-13T14:49:12.302Z,93.77
2019-01-13T14:51:46.560Z,93.73
2019-01-13T14:57:30.009Z,93.52
2019-01-13T15:00:01.610Z,93.40
2019-01-13T15:02:33.260Z,93.31
2019-01-13T15:05:07.134Z,93.17
2019-01-13T15:07:38.767Z,93.14
2019-01-13T15:10:12.089Z,92.98
2019-01-13T15:12:43.696Z,93.07
2019-01-13T15:15:16.048Z,92.83
2019-01-13T15:17:47.715Z,92.78
2019-01-13T15:20:24.657Z,92.78
2019-01-13T15:22:56.365Z,92.71
2019-01-13T15:25:30.626Z,92.54
2019-01-13T15:28:03.469Z,92.60
2019-01-13T15:30:37.637Z,92.54
2019-01-13T15:33:10.820Z,92.46
2019-01-13T15:35:44.199Z,92.56
2019-01-13T15:38:16.087Z,92.53
2019-01-13T15:40:47.821Z,92.40
2019-01-13T15:43:19.483Z,92.35
2019-01-13T15:45:51.108Z,92.49
2019-01-13T15:48:24.563Z,92.34
2019-01-13T15:50:58.420Z,92.47
2019-01-13T15:53:30.153Z,92.51
2019-01-13T15:56:03.772Z,92.50
2019-01-13T15:58:35.230Z,92.53
2019-01-13T16:01:06.981Z,92.53
2019-01-13T16:03:38.609Z,92.62
2019-01-13T16:06:10.290Z,92.59
2019-01-13T16:08:41.914Z,92.53
2019-01-13T16:11:13.510Z,92.54
2019-01-13T16:13:46.415Z,92.46
2019-01-13T16:16:18.017Z,92.49
2019-01-13T16:18:49.629Z,92.49
2019-01-13T16:21:21.771Z,92.28
2019-01-13T16:23:53.525Z,92.03
2019-01-13T16:26:26.107Z,91.90
2019-01-13T16:29:02.507Z,91.98
2019-01-13T16:31:32.678Z,91.89
2019-01-13T16:34:04.324Z,91.94
2019-01-13T16:36:39.376Z,92.07
2019-01-13T16:39:14.042Z,92.19
2019-01-13T16:41:46.817Z,92.24
2019-01-13T16:44:18.420Z,92.30
2019-01-13T16:46:54.895Z,92.47
2019-01-13T16:49:26.522Z,92.55
2019-01-13T16:51:58.159Z,92.65
2019-01-13T16:54:29.749Z,92.68
2019-01-13T16:57:02.882Z,92.60
2019-01-13T16:59:37.024Z,92.62
2019-01-13T17:02:08.726Z,92.74
2019-01-13T17:04:43.526Z,92.88
2019-01-13T17:07:15.227Z,92.99
2019-01-13T17:09:46.956Z,92.89
2019-01-13T17:12:21.351Z,92.90
2019-01-13T17:14:52.996Z,92.85
2019-01-13T17:17:24.634Z,92.82
2019-01-13T17:19:56.304Z,92.79
2019-01-13T17:22:28.047Z,92.76
2019-01-13T17:25:00.750Z,92.68
2019-01-13T17:27:33.710Z,92.37
2019-01-13T17:30:08.433Z,92.33
2019-01-13T17:32:40.080Z,92.38
2019-01-13T17:35:11.671Z,92.25
2019-01-13T17:37:43.431Z,92.32
2019-01-13T17:40:17.928Z,92.29
2019-01-13T17:42:49.614Z,92.26
2019-01-13T17:45:25.989Z,92.27
2019-01-13T17:47:57.666Z,92.38
2019-01-13T17:50:29.830Z,92.30
2019-01-13T17:53:01.554Z,92.25
2019-01-13T17:55:33.701Z,92.17
2019-01-13T17:58:05.336Z,92.23
2019-01-13T18:00:58.099Z,92.14
2019-01-13T18:03:44.478Z,92.06
2019-01-13T18:06:16.289Z,92.27
2019-01-13T18:08:47.921Z,92.40
2019-01-13T18:11:21.669Z,92.45
2019-01-13T18:13:56.086Z,92.41
2019-01-13T18:16:29.782Z,92.16
2019-01-13T18:19:01.496Z,92.36
2019-01-13T18:21:33.178Z,92.29
2019-01-13T18:24:05.010Z,92.56
2019-01-13T18:26:36.725Z,92.50
2019-01-13T18:29:08.596Z,92.49
2019-01-13T18:31:40.210Z,92.48
2019-01-13T18:34:11.961Z,92.59
2019-01-13T18:36:43.525Z,92.62
2019-01-13T18:39:15.165Z,92.76
2019-01-13T18:41:47.944Z,92.93
2019-01-13T18:44:19.584Z,93.06
2019-01-13T18:46:51.246Z,93.12
2019-01-13T18:49:22.898Z,93.22
2019-01-13T18:51:54.588Z,93.28
2019-01-13T18:54:26.349Z,93.26
2019-01-13T18:56:57.966Z,93.27
2019-01-13T18:59:29.757Z,93.21
2019-01-13T19:02:01.404Z,93.27
2019-01-13T19:04:33.035Z,93.46
2019-01-13T19:07:04.643Z,93.41
2019-01-13T19:09:36.452Z,93.63
2019-01-13T19:12:09.284Z,93.65
2019-01-13T19:14:49.682Z,93.59
2019-01-13T19:17:24.654Z,93.56
2019-01-13T19:20:23.486Z,93.33
2019-01-13T19:23:10.448Z,93.35
2019-01-13T19:25:43.159Z,93.40
2019-01-13T19:28:15.746Z,93.29
2019-01-13T19:30:47.430Z,93.46
2019-01-13T19:33:19.136Z,93.63
2019-01-13T19:35:52.423Z,93.72
2019-01-13T19:38:24.113Z,93.78
2019-01-13T19:40:55.802Z,93.67
2019-01-13T19:43:28.548Z,93.75
2019-01-13T19:46:00.297Z,93.62
2019-01-13T19:48:31.932Z,93.28
2019-01-13T19:51:03.536Z,93.31
2019-01-13T19:53:35.209Z,93.39
2019-01-13T19:56:07.182Z,93.30
2019-01-13T19:58:40.028Z,93.21
2019-01-13T20:01:11.774Z,93.26
2019-01-13T20:03:45.062Z,93.50
2019-01-13T20:06:16.800Z,93.79
2019-01-13T20:08:48.490Z,93.75
2019-01-13T20:11:21.166Z,93.85
2019-01-13T20:13:52.932Z,94.00
2019-01-13T20:16:24.541Z,94.12
2019-01-13T20:18:56.628Z,93.85
2019-01-13T20:21:28.318Z,93.79
2019-01-13T20:24:00.240Z,93.85
2019-01-13T20:26:31.901Z,93.57
2019-01-13T20:29:03.601Z,93.68
2019-01-13T20:31:35.201Z,93.65
2019-01-13T20:34:06.971Z,93.55
2019-01-13T20:36:38.593Z,93.46
2019-01-13T20:39:11.179Z,93.26
2019-01-13T20:41:42.822Z,93.29
2019-01-13T20:44:14.450Z,93.30
2019-01-13T20:46:46.177Z,93.22
2019-01-13T20:49:17.908Z,93.38
2019-01-13T20:51:49.600Z,93.46
2019-01-13T20:54:21.223Z,92.35
2019-01-13T20:56:52.897Z,91.61
2019-01-13T20:59:24.722Z,91.05
2019-01-13T21:01:56.357Z,90.69
2019-01-13T21:04:27.945Z,89.95
2019-01-13T21:06:59.715Z,89.74
2019-01-13T21:09:31.440Z,88.63
2019-01-13T21:12:03.170Z,87.61
2019-01-13T21:14:34.900Z,87.07
2019-01-13T21:17:06.535Z,86.40
2019-01-13T21:19:38.171Z,86.65
2019-01-13T21:22:09.870Z,86.92
2019-01-13T21:24:41.558Z,87.11
2019-01-13T21:27:13.238Z,87.10
2019-01-13T21:29:44.926Z,87.37
2019-01-13T21:32:16.528Z,87.72
2019-01-13T21:34:48.185Z,87.85
2019-01-13T21:37:19.846Z,87.75
2019-01-13T21:39:51.524Z,87.90
2019-01-13T21:42:24.247Z,87.86
2019-01-13T21:44:55.905Z,87.69
2019-01-13T21:47:27.711Z,87.54
2019-01-13T21:49:59.353Z,87.60
2019-01-13T21:52:31.080Z,87.38
2019-01-13T21:55:02.662Z,87.39
2019-01-13T21:57:34.410Z,86.91
2019-01-13T22:00:15.019Z,86.79
2019-01-13T22:02:46.644Z,86.56
2019-01-13T22:05:18.942Z,87.05
2019-01-13T22:07:50.689Z,87.44
2019-01-13T22:10:23.680Z,87.78
2019-01-13T22:12:56.640Z,87.85
2019-01-13T22:15:28.228Z,88.12
2019-01-13T22:17:59.942Z,88.49
2019-01-13T22:20:31.734Z,88.65
2019-01-13T22:23:03.460Z,88.88
2019-01-13T22:25:35.073Z,88.91
2019-01-13T22:28:06.715Z,89.03
2019-01-13T22:30:39.929Z,89.07
2019-01-13T22:33:11.564Z,89.15
2019-01-13T22:35:48.135Z,88.83
2019-01-13T22:38:16.798Z,88.79
2019-01-13T22:40:48.404Z,88.45
2019-01-13T22:43:20.115Z,88.53
2019-01-13T22:45:51.732Z,88.77
2019-01-13T22:48:24.987Z,88.82
2019-01-13T22:50:56.714Z,88.96
2019-01-13T22:53:28.331Z,88.80
2019-01-13T22:56:02.523Z,88.29
2019-01-13T22:58:34.111Z,88.47
2019-01-13T23:01:43.840Z,88.06
2019-01-13T23:04:17.488Z,88.21
2019-01-13T23:06:49.215Z,87.87
2019-01-13T23:09:20.805Z,87.77
2019-01-13T23:11:54.441Z,87.58
2019-01-13T23:14:26.117Z,87.37
2019-01-13T23:16:57.712Z,87.38
2019-01-13T23:19:30.633Z,87.13
2019-01-13T23:22:02.243Z,87.19
2019-01-13T23:24:33.841Z,87.47
2019-01-13T23:27:05.545Z,87.30
2019-01-13T23:29:37.139Z,87.37
2019-01-13T23:32:08.820Z,87.57
2019-01-13T23:34:40.511Z,87.57
2019-01-13T23:37:12.098Z,87.62
2019-01-13T23:39:43.677Z,87.92
2019-01-13T23:42:16.590Z,88.00
2019-01-13T23:44:48.198Z,87.98
2019-01-13T23:47:19.795Z,87.73
2019-01-13T23:49:51.537Z,87.73
2019-01-13T23:52:23.118Z,88.05
2019-01-13T23:54:54.743Z,87.73
2019-01-13T23:57:26.454Z,87.58
2019-01-13T23:59:58.024Z,87.40
